Terminal Aerodrome Forecast
Issued by NWS

Home | Current Version | Previous Version | Graphics & Text | Print | Product List | Glossary On
Versions: 1 2 3 4 5 6 7 8 9 10 11 12 13 14 15 16 17 18 19 20 21 22 23 24 25 26 27 28 29 30 31 32 33 34 35 36 37 38 39 40 41 42 43 44
006
FTUS43 KGRB 211722
TAFRHI
TAF
KRHI 211722Z 2118/2218 10008KT 2SM -RA BR OVC003
      TEMPO 2118/2121 1/2SM -DZ FG BKN002
     FM212100 12004KT 1/4SM -DZ FG OVC002
     FM220300 21003KT 1/4SM -DZ FG OVC001
      TEMPO 2209/2213 1/4SM -FZDZ FG OVC001
     FM221600 00000KT 1/2SM FG OVC002=

USA.gov is the U.S. government's official web portal to all federal, state and local government web resources and services.